Time;durP1;ratioP1;P1;durP2;ratioP2;P2;SDS_P1;SDS_P2;PMS_P1;PMS_P2;Temp;Humidity;BMP_temperature;BMP_pressure;BME280_temperature;BME280_humidity;BME280_pressure;Samples;Min_cycle;Max_cycle;Signal;HPM_P1;HPM_P2
2024/03/18 00:02:15;;;;;;;1.85;1.35;;;;;;;8.45;100.00;97913.22;1224521;75;2916076;-68
2024/03/18 00:04:48;;;;;;;1.65;1.25;;;;;;;8.44;100.00;97919.88;1223491;75;2925797;-67
2024/03/18 00:07:23;;;;;;;1.40;1.30;;;;;;;8.57;100.00;97912.28;1225749;75;2860308;-68
2024/03/18 00:09:56;;;;;;;2.20;1.45;;;;;;;8.57;100.00;97912.28;1224662;75;2923311;-66
2024/03/18 00:12:32;;;;;;;1.85;1.20;;;;;;;8.56;100.00;97915.47;1223085;75;2923552;-70
2024/03/18 00:15:06;;;;;;;1.10;1.00;;;;;;;8.59;100.00;97903.66;1224511;75;2949018;-68
2024/03/18 00:17:39;;;;;;;1.95;1.30;;;;;;;8.62;100.00;97905.47;1222592;75;3012692;-66
2024/03/18 00:20:14;;;;;;;1.25;1.10;;;;;;;8.64;100.00;97911.22;1224083;75;2885176;-68
2024/03/18 00:22:47;;;;;;;1.55;1.00;;;;;;;8.63;100.00;97904.25;1225955;75;2909643;-66
2024/03/18 00:25:20;;;;;;;1.35;1.05;;;;;;;8.65;100.00;97897.13;1225265;75;2922373;-68
2024/03/18 00:27:56;;;;;;;1.10;0.90;;;;;;;8.65;100.00;97899.84;1225163;75;2929722;-69
2024/03/18 00:30:29;;;;;;;1.35;1.00;;;;;;;8.59;100.00;97892.75;1225537;75;2909436;-67
2024/03/18 00:33:01;;;;;;;1.45;1.10;;;;;;;8.60;100.00;97892.28;1225510;75;2919852;-69
2024/03/18 00:35:34;;;;;;;2.00;1.25;;;;;;;8.59;100.00;97890.78;1225947;75;2915297;-70
2024/03/18 00:38:07;;;;;;;1.40;1.15;;;;;;;8.58;100.00;97891.97;1225927;75;2915302;-67
2024/03/18 00:40:40;;;;;;;1.60;1.30;;;;;;;8.58;100.00;97891.22;1224317;75;2925867;-67
2024/03/18 00:43:13;;;;;;;1.60;1.20;;;;;;;8.54;100.00;97880.47;1225416;75;2912919;-68
2024/03/18 00:45:46;;;;;;;2.55;0.95;;;;;;;8.56;100.00;97886.19;1225598;75;2915266;-68
2024/03/18 00:48:19;;;;;;;1.35;1.25;;;;;;;8.61;100.00;97874.69;1224431;75;2919437;-65
2024/03/18 00:50:51;;;;;;;2.20;1.40;;;;;;;8.61;100.00;97876.66;1225987;75;2919320;-66
2024/03/18 00:53:24;;;;;;;1.40;1.30;;;;;;;8.64;100.00;97871.06;1224615;75;2917376;-66
2024/03/18 00:55:57;;;;;;;1.35;1.10;;;;;;;8.63;100.00;97868.78;1225221;75;2914746;-65
2024/03/18 00:58:33;;;;;;;1.65;1.30;;;;;;;8.62;100.00;97859.09;1225291;75;2923263;-67
2024/03/18 01:01:06;;;;;;;1.45;1.20;;;;;;;8.63;100.00;97864.06;1225344;75;2916683;-67
2024/03/18 01:03:39;;;;;;;2.50;1.40;;;;;;;8.68;100.00;97857.22;1225671;75;2920865;-68
2024/03/18 01:06:12;;;;;;;1.45;1.20;;;;;;;8.65;100.00;97858.16;1225432;75;2915734;-64
2024/03/18 01:08:45;;;;;;;1.25;1.10;;;;;;;8.74;100.00;97855.41;1225837;75;2913971;-67
2024/03/18 01:11:19;;;;;;;1.70;1.30;;;;;;;8.67;100.00;97855.72;1222331;75;3095958;-70
2024/03/18 01:13:55;;;;;;;2.40;1.00;;;;;;;8.68;100.00;97838.13;1220633;75;3041695;-68
2024/03/18 01:16:28;;;;;;;1.50;1.20;;;;;;;8.66;100.00;97848.75;1213023;75;3828521;-67
2024/03/18 01:19:01;;;;;;;1.40;1.10;;;;;;;8.59;100.00;97852.56;1225030;75;2931565;-67
2024/03/18 01:21:34;;;;;;;1.45;1.15;;;;;;;8.62;100.00;97856.34;1225863;75;2918112;-68
2024/03/18 01:24:08;;;;;;;1.95;1.40;;;;;;;8.65;100.00;97845.25;1225649;75;2918416;-67
2024/03/18 01:26:40;;;;;;;1.40;1.10;;;;;;;8.67;100.00;97842.84;1221128;75;3132762;-68
2024/03/18 01:29:16;;;;;;;2.35;1.25;;;;;;;8.63;100.00;97844.22;1225545;75;2913305;-69
2024/03/18 01:31:49;;;;;;;1.45;1.25;;;;;;;8.62;100.00;97845.44;1225311;75;2915284;-68
2024/03/18 01:34:21;;;;;;;1.80;1.20;;;;;;;8.63;100.00;97844.22;1225760;75;2906128;-66
2024/03/18 01:36:55;;;;;;;1.25;1.00;;;;;;;8.72;100.00;97844.94;1226249;75;2919440;-67
2024/03/18 01:39:28;;;;;;;1.40;1.30;;;;;;;8.70;100.00;97844.66;1225890;75;2923990;-69
2024/03/18 01:42:00;;;;;;;1.40;1.10;;;;;;;8.66;100.00;97844.06;1224923;75;2925411;-67
2024/03/18 01:44:36;;;;;;;1.20;1.00;;;;;;;8.69;100.00;97839.66;1222178;75;3079485;-67
2024/03/18 01:47:10;;;;;;;2.20;1.15;;;;;;;8.67;100.00;97836.63;1225961;75;2920042;-65
2024/03/18 01:49:42;;;;;;;1.50;1.10;;;;;;;8.66;100.00;97844.06;1225619;75;2915741;-65
2024/03/18 01:52:15;;;;;;;1.35;0.95;;;;;;;8.65;100.00;97839.06;1222249;75;3054128;-70
2024/03/18 01:54:51;;;;;;;2.30;1.10;;;;;;;8.62;100.00;97837.25;1223226;75;3029388;-66
2024/03/18 01:57:24;;;;;;;1.65;1.00;;;;;;;8.71;100.00;97835.25;1226633;75;2920587;-70
2024/03/18 02:00:00;;;;;;;1.60;1.10;;;;;;;8.72;100.00;97838.75;1225774;75;2921634;-67
2024/03/18 02:02:32;;;;;;;1.65;1.10;;;;;;;8.76;100.00;97839.34;1225188;75;2906097;-68
2024/03/18 02:05:06;;;;;;;1.20;1.10;;;;;;;8.78;100.00;97831.47;1224161;75;2942330;-66
2024/03/18 02:07:39;;;;;;;1.50;1.10;;;;;;;8.73;100.00;97826.59;1225250;75;2920838;-65
2024/03/18 02:10:13;;;;;;;0.80;0.70;;;;;;;8.76;100.00;97831.16;1225619;75;2930645;-67
2024/03/18 02:12:46;;;;;;;1.05;0.90;;;;;;;8.78;98.69;97823.28;1225656;75;2911791;-65
2024/03/18 02:15:23;;;;;;;1.15;0.85;;;;;;;8.79;98.60;97822.03;1225696;75;2915435;-67
2024/03/18 02:17:56;;;;;;;1.10;0.80;;;;;;;8.81;95.46;97819.63;1225233;67;2921182;-70
2024/03/18 02:20:30;;;;;;;1.40;1.00;;;;;;;8.84;96.41;97815.97;1224397;75;2912819;-65
2024/03/18 02:23:06;;;;;;;2.10;0.90;;;;;;;8.77;96.71;97818.25;1222188;75;3045656;-67
2024/03/18 02:25:39;;;;;;;1.55;1.05;;;;;;;8.53;96.79;97816.94;1192890;75;5228552;-68
2024/03/18 02:28:12;;;;;;;2.95;1.60;;;;;;;8.68;93.34;97817.06;1211466;75;3965587;-65
2024/03/18 02:30:45;;;;;;;1.85;1.20;;;;;;;8.71;90.07;97815.41;1226559;75;2922061;-67
2024/03/18 02:33:18;;;;;;;1.20;1.10;;;;;;;8.69;91.02;97810.38;1225275;75;2914805;-69
2024/03/18 02:35:51;;;;;;;1.60;1.20;;;;;;;8.56;92.11;97817.25;1225146;75;2927482;-69
2024/03/18 02:38:26;;;;;;;4.00;2.00;;;;;;;8.41;95.06;97817.88;1225839;75;2924791;-66
2024/03/18 02:40:59;;;;;;;3.60;1.85;;;;;;;8.23;100.00;97813.16;1225329;75;2918506;-66
2024/03/18 02:43:32;;;;;;;4.20;2.50;;;;;;;8.21;98.98;97817.56;1207618;75;3986506;-66
2024/03/18 02:46:06;;;;;;;3.95;2.65;;;;;;;8.14;97.03;97806.97;1225402;75;2914542;-66
2024/03/18 02:48:39;;;;;;;4.80;2.80;;;;;;;8.11;97.46;97816.81;1225274;75;2917485;-65
2024/03/18 02:51:12;;;;;;;3.85;2.55;;;;;;;8.19;96.41;97811.81;1225395;67;2924369;-66
2024/03/18 02:53:45;;;;;;;6.40;2.70;;;;;;;8.24;95.66;97813.91;1225712;75;2921790;-67
2024/03/18 02:56:18;;;;;;;2.90;2.00;;;;;;;8.37;92.51;97811.81;1224664;75;2924502;-67
2024/03/18 02:58:52;;;;;;;3.45;2.10;;;;;;;8.38;89.42;97809.81;1225849;75;2914739;-69
2024/03/18 03:01:25;;;;;;;5.40;2.60;;;;;;;8.34;89.01;97807.25;1226003;75;2925083;-69
2024/03/18 03:03:58;;;;;;;2.60;1.70;;;;;;;8.53;89.13;97806.03;1226118;75;2875429;-70
2024/03/18 03:06:31;;;;;;;3.30;1.85;;;;;;;8.55;90.41;97807.56;1225372;75;2928067;-65
2024/03/18 03:09:06;;;;;;;2.75;1.40;;;;;;;8.61;90.32;97798.28;1225038;75;2919610;-69
2024/03/18 03:11:39;;;;;;;1.10;1.00;;;;;;;8.60;92.19;97801.47;1223742;75;2950905;-66
2024/03/18 03:14:13;;;;;;;1.65;1.20;;;;;;;8.57;94.68;97789.50;1225826;75;2921167;-65
2024/03/18 03:16:46;;;;;;;1.40;1.25;;;;;;;8.64;94.25;97788.44;1225291;75;2928930;-66
2024/03/18 03:19:19;;;;;;;1.35;1.15;;;;;;;8.69;94.39;97787.81;1225403;75;2919738;-66
2024/03/18 03:21:51;;;;;;;1.50;1.15;;;;;;;8.68;96.44;97792.50;1225493;75;2924132;-66
2024/03/18 03:24:27;;;;;;;1.25;1.00;;;;;;;8.69;98.31;97785.06;1225478;75;2916814;-65
2024/03/18 03:27:00;;;;;;;1.85;1.00;;;;;;;8.72;99.78;97781.41;1223956;75;2922588;-68
2024/03/18 03:29:32;;;;;;;0.95;0.85;;;;;;;8.75;99.48;97777.75;1225378;75;2920100;-67
2024/03/18 03:32:05;;;;;;;2.00;1.15;;;;;;;8.67;100.00;97784.78;1225086;75;2913579;-65
2024/03/18 03:34:38;;;;;;;1.30;1.05;;;;;;;8.77;98.87;97788.97;1224061;75;2912020;-70
2024/03/18 03:37:11;;;;;;;1.85;1.00;;;;;;;8.80;98.77;97777.13;1225547;75;2921650;-71
2024/03/18 03:39:46;;;;;;;1.75;1.10;;;;;;;8.73;100.00;97774.72;1225489;75;2912872;-68
2024/03/18 03:42:19;;;;;;;1.30;1.20;;;;;;;8.80;99.70;97766.22;1224859;75;2919793;-65
2024/03/18 03:44:52;;;;;;;1.75;1.10;;;;;;;8.80;98.70;97774.41;1225381;75;2919967;-67
2024/03/18 03:47:25;;;;;;;3.80;1.50;;;;;;;8.41;96.80;97787.84;1223291;75;2996238;-67
2024/03/18 03:49:58;;;;;;;2.85;2.10;;;;;;;8.38;98.55;97774.34;1225608;75;2941983;-67
2024/03/18 03:52:31;;;;;;;3.15;2.50;;;;;;;8.29;100.00;97773.16;1224417;75;2922208;-66
2024/03/18 03:55:07;;;;;;;3.95;2.35;;;;;;;8.26;100.00;97771.34;1225273;75;2918810;-68
2024/03/18 03:57:41;;;;;;;3.05;2.20;;;;;;;8.52;100.00;97782.69;1224276;75;2923682;-65
2024/03/18 04:00:16;;;;;;;3.40;1.90;;;;;;;8.52;100.00;97781.94;1224560;75;2913015;-66
2024/03/18 04:02:49;;;;;;;4.25;3.05;;;;;;;8.31;100.00;97786.34;1224660;75;2913183;-67
2024/03/18 04:05:22;;;;;;;4.05;2.85;;;;;;;8.51;100.00;97786.66;1224785;75;2931313;-66
2024/03/18 04:07:55;;;;;;;3.90;2.60;;;;;;;8.61;100.00;97778.41;1223049;75;2979623;-67
2024/03/18 04:10:30;;;;;;;3.60;2.60;;;;;;;8.63;100.00;97778.72;1223403;75;2920422;-68
2024/03/18 04:13:03;;;;;;;3.70;2.50;;;;;;;8.63;100.00;97778.72;1224592;75;2923649;-65
2024/03/18 04:15:36;;;;;;;2.30;1.85;;;;;;;8.64;97.92;97774.78;1224831;75;2921599;-68
2024/03/18 04:18:09;;;;;;;2.45;1.85;;;;;;;8.67;98.26;97773.84;1224529;75;2924238;-67
2024/03/18 04:20:42;;;;;;;2.40;1.45;;;;;;;8.66;99.81;97772.31;1225154;75;2923513;-66
2024/03/18 04:23:15;;;;;;;2.15;1.55;;;;;;;8.53;100.00;97776.00;1225212;75;2918747;-71
2024/03/18 04:25:50;;;;;;;1.85;1.30;;;;;;;8.60;100.00;97768.72;1225791;75;2920926;-68
2024/03/18 04:28:23;;;;;;;1.35;1.15;;;;;;;8.57;100.00;97767.66;1222240;75;2999812;-68
2024/03/18 04:30:58;;;;;;;2.65;1.40;;;;;;;8.57;100.00;97767.66;1198426;75;5068556;-67
2024/03/18 04:33:31;;;;;;;1.90;1.40;;;;;;;8.58;100.00;97763.72;1224427;75;2925968;-68
2024/03/18 04:36:04;;;;;;;1.90;1.50;;;;;;;8.53;100.00;97753.44;1224549;75;2921692;-68
2024/03/18 04:38:37;;;;;;;2.10;1.40;;;;;;;8.50;100.00;97757.84;1225042;75;2915175;-67
2024/03/18 04:41:13;;;;;;;1.70;1.30;;;;;;;8.57;100.00;97756.00;1225024;75;2923255;-68
2024/03/18 04:43:46;;;;;;;1.70;1.10;;;;;;;8.61;100.00;97751.13;1225492;75;2919684;-65
2024/03/18 04:46:19;;;;;;;1.65;1.20;;;;;;;8.58;99.68;97757.50;1225644;75;2925937;-67
2024/03/18 04:48:51;;;;;;;2.45;1.15;;;;;;;8.57;99.38;97754.03;1225144;75;2917247;-66
2024/03/18 04:51:24;;;;;;;1.85;1.10;;;;;;;8.48;99.15;97752.06;1224554;75;2913171;-67
2024/03/18 04:53:57;;;;;;;1.30;1.20;;;;;;;8.45;99.23;97755.72;1224003;75;2966118;-68
2024/03/18 04:56:34;;;;;;;1.75;1.30;;;;;;;8.53;97.80;97767.06;1224343;75;2921598;-66
2024/03/18 04:59:07;;;;;;;1.80;1.25;;;;;;;8.49;96.36;97761.78;1222063;75;3043736;-66
2024/03/18 05:01:40;;;;;;;2.00;1.65;;;;;;;8.53;96.93;97758.88;1222787;75;2929084;-66
2024/03/18 05:04:13;;;;;;;3.30;1.75;;;;;;;8.52;96.63;97755.41;1223144;75;2928922;-67
2024/03/18 05:06:47;;;;;;;3.05;1.85;;;;;;;8.44;97.58;97767.09;1224435;75;2925743;-67
2024/03/18 05:09:20;;;;;;;1.20;1.10;;;;;;;8.52;95.95;97771.78;1224497;75;2929581;-69
2024/03/18 05:11:56;;;;;;;3.15;1.40;;;;;;;8.54;94.21;97768.59;1224001;75;2920535;-67
2024/03/18 05:14:29;;;;;;;1.50;1.10;;;;;;;8.60;93.41;97768.72;1223739;75;2929854;-66
2024/03/18 05:17:02;;;;;;;1.75;1.35;;;;;;;8.53;92.59;97767.81;1223802;75;2952352;-69
2024/03/18 05:19:34;;;;;;;3.15;1.40;;;;;;;8.50;89.46;97774.19;1224641;75;2921923;-69
2024/03/18 05:22:07;;;;;;;2.15;1.65;;;;;;;8.56;88.13;97773.56;1224498;75;2924181;-69
2024/03/18 05:24:43;;;;;;;2.40;1.65;;;;;;;8.63;86.89;97767.81;1223701;75;2915901;-70
2024/03/18 05:27:23;;;;;;;3.20;2.15;;;;;;;8.53;85.90;97769.78;1224697;75;2924262;-68
2024/03/18 05:29:55;;;;;;;2.60;1.65;;;;;;;8.55;85.85;97775.56;1224071;75;2917409;-69
2024/03/18 05:32:28;;;;;;;2.35;1.55;;;;;;;8.59;84.38;97778.13;1224138;75;2939632;-69
2024/03/18 05:35:02;;;;;;;2.55;1.50;;;;;;;8.67;83.60;97771.13;1224050;75;2952484;-67
2024/03/18 05:37:34;;;;;;;5.75;3.45;;;;;;;8.69;82.68;97776.88;1224489;75;2922067;-68
2024/03/18 05:40:09;;;;;;;4.45;2.80;;;;;;;8.73;81.42;97772.00;1224020;75;2925154;-66
2024/03/18 05:42:45;;;;;;;4.10;2.50;;;;;;;8.77;81.33;97778.06;1222796;75;2922556;-68
2024/03/18 05:45:18;;;;;;;3.40;1.80;;;;;;;8.64;80.74;97782.97;1225067;75;2926140;-67
2024/03/18 05:47:51;;;;;;;2.75;1.50;;;;;;;8.66;79.47;97781.28;1224704;75;2930427;-69
2024/03/18 05:50:24;;;;;;;2.15;1.40;;;;;;;8.65;80.02;97782.50;1224965;75;2918847;-68
2024/03/18 05:52:57;;;;;;;1.85;1.25;;;;;;;8.69;79.38;97785.81;1224860;75;2923567;-65
2024/03/18 05:55:30;;;;;;;2.60;1.60;;;;;;;8.75;79.44;97791.41;1223924;75;2931971;-68
2024/03/18 05:58:06;;;;;;;1.55;1.10;;;;;;;8.78;79.35;97785.06;1223335;75;2930333;-67
2024/03/18 06:00:39;;;;;;;2.45;1.05;;;;;;;8.73;78.53;97775.50;1224714;75;2915483;-68
2024/03/18 06:03:12;;;;;;;2.25;1.20;;;;;;;8.75;78.76;97785.94;1225117;75;2923780;-67
2024/03/18 06:05:45;;;;;;;2.10;1.45;;;;;;;8.67;78.14;97776.59;1226115;75;2917931;-68
2024/03/18 06:08:17;;;;;;;1.80;1.30;;;;;;;8.71;77.98;97777.19;1225584;75;2917634;-69
2024/03/18 06:10:50;;;;;;;1.35;1.25;;;;;;;8.64;77.92;97782.97;1224928;75;2920991;-68
2024/03/18 06:13:26;;;;;;;2.65;1.40;;;;;;;8.82;77.79;97782.16;1224266;67;2934192;-67
2024/03/18 06:16:01;;;;;;;3.30;1.15;;;;;;;8.89;78.91;97781.81;1224131;75;2922328;-69
2024/03/18 06:18:34;;;;;;;2.95;1.95;;;;;;;8.79;77.34;97786.56;1224120;75;2918938;-68
2024/03/18 06:21:16;;;;;;;4.10;2.05;;;;;;;8.86;76.72;97782.75;1224796;75;2926229;-67
2024/03/18 06:23:50;;;;;;;2.85;1.40;;;;;;;8.91;77.09;97782.88;1224615;75;2936992;-68
2024/03/18 06:26:21;;;;;;;2.60;1.35;;;;;;;8.83;76.35;97775.47;1222373;75;2999244;-66
2024/03/18 06:28:56;;;;;;;2.35;1.50;;;;;;;8.86;76.62;97780.75;1223983;75;2920014;-68
2024/03/18 06:31:33;;;;;;;2.10;1.45;;;;;;;8.73;76.23;97782.94;1220865;75;3100283;-69
2024/03/18 06:34:07;;;;;;;6.00;3.55;;;;;;;8.23;76.12;97775.00;1224778;75;2921575;-67
2024/03/18 06:36:41;;;;;;;4.60;2.40;;;;;;;8.61;75.64;97775.69;1224384;75;2928652;-70
2024/03/18 06:39:15;;;;;;;4.15;2.20;;;;;;;8.60;75.98;97772.19;1224581;75;2924598;-68
2024/03/18 06:41:48;;;;;;;3.80;2.20;;;;;;;8.71;74.63;97775.22;1219808;75;2921314;-69
2024/03/18 06:44:23;;;;;;;7.70;1.75;;;;;;;8.71;74.16;97780.66;1221910;75;2945839;-70
2024/03/18 06:46:56;;;;;;;5.85;2.35;;;;;;;8.76;73.68;97778.53;1224651;75;2927982;-68
2024/03/18 06:49:29;;;;;;;4.00;2.25;;;;;;;8.71;73.72;97785.38;1223683;75;2923477;-66
2024/03/18 06:52:01;;;;;;;2.50;1.70;;;;;;;8.83;73.87;97780.94;1223873;75;2930013;-70
2024/03/18 06:54:36;;;;;;;3.85;2.30;;;;;;;8.73;75.00;97780.19;1216001;75;3057210;-67
2024/03/18 06:57:09;;;;;;;3.60;2.10;;;;;;;8.49;74.67;97775.44;1221660;75;2920705;-68
2024/03/18 06:59:45;;;;;;;4.05;2.70;;;;;;;8.13;74.45;97767.25;1222665;75;2926090;-70
2024/03/18 07:02:20;;;;;;;3.85;2.80;;;;;;;8.32;74.93;97774.97;1223620;75;2927218;-70
2024/03/18 07:04:53;;;;;;;3.25;2.20;;;;;;;8.54;74.46;97771.31;1212739;75;3837029;-65
2024/03/18 07:07:26;;;;;;;4.80;2.00;;;;;;;8.69;74.59;97765.97;1222034;75;2924348;-69
2024/03/18 07:10:00;;;;;;;4.85;2.10;;;;;;;8.76;73.90;97775.81;1224532;75;2917747;-67
2024/03/18 07:12:33;;;;;;;2.15;1.50;;;;;;;8.88;73.67;97769.41;1223037;75;2966034;-70
2024/03/18 07:15:11;;;;;;;5.45;2.60;;;;;;;8.50;74.23;97768.75;1223322;75;2920013;-66
2024/03/18 07:17:44;;;;;;;3.10;2.05;;;;;;;8.77;74.11;97777.31;1223579;75;2927000;-69
2024/03/18 07:20:17;;;;;;;2.80;1.80;;;;;;;8.94;74.04;97759.34;1224244;75;2918726;-68
2024/03/18 07:22:50;;;;;;;1.75;1.40;;;;;;;8.98;71.93;97764.66;1223149;75;2926894;-68
2024/03/18 07:25:23;;;;;;;3.20;1.85;;;;;;;9.10;72.28;97769.16;1223959;75;2926412;-69
2024/03/18 07:27:56;;;;;;;2.60;1.55;;;;;;;9.20;72.23;97770.59;1224446;75;2927934;-69
2024/03/18 07:30:32;;;;;;;2.00;1.25;;;;;;;9.26;71.47;97768.75;1223927;75;2929975;-70
2024/03/18 07:33:06;;;;;;;3.30;1.75;;;;;;;9.28;71.96;97766.28;1224107;75;2922032;-68
2024/03/18 07:35:39;;;;;;;3.50;1.80;;;;;;;9.13;71.16;97771.69;1223834;75;2925207;-68
2024/03/18 07:38:11;;;;;;;5.55;2.25;;;;;;;9.23;71.45;97768.91;1224470;75;2929466;-68
2024/03/18 07:40:44;;;;;;;3.60;1.75;;;;;;;9.21;70.97;97763.91;1224441;75;2923790;-69
2024/03/18 07:43:17;;;;;;;3.70;1.80;;;;;;;9.41;71.72;97760.63;1220435;75;2936647;-68
2024/03/18 07:45:53;;;;;;;2.25;1.30;;;;;;;9.48;70.94;97767.72;1223977;75;2922126;-69
2024/03/18 07:48:25;;;;;;;7.70;3.75;;;;;;;9.03;72.04;97759.31;1224333;75;2918936;-67
2024/03/18 07:51:02;;;;;;;5.75;2.70;;;;;;;9.25;71.45;97761.78;1223333;75;2919285;-70
2024/03/18 07:53:35;;;;;;;5.35;2.80;;;;;;;8.96;71.41;97759.66;1223152;75;2925327;-70
2024/03/18 07:56:17;;;;;;;3.70;2.50;;;;;;;9.58;70.92;97755.50;1222612;75;3005637;-68
2024/03/18 07:58:51;;;;;;;3.05;1.75;;;;;;;9.85;71.30;97751.06;1024972;75;12295927;-68
2024/03/18 08:01:27;;;;;;;1.95;1.45;;;;;;;10.00;68.91;97749.09;1223458;75;2922061;-70
2024/03/18 08:04:00;;;;;;;2.55;1.55;;;;;;;10.04;69.27;97744.19;1223988;75;2926017;-71
2024/03/18 08:06:35;;;;;;;1.25;1.10;;;;;;;10.31;67.77;97743.19;1222594;75;2926558;-68
2024/03/18 08:09:08;;;;;;;2.75;1.50;;;;;;;10.18;67.95;97742.72;1223676;75;2926152;-68
2024/03/18 08:11:41;;;;;;;4.90;2.70;;;;;;;10.16;67.97;97732.22;1221334;75;2931384;-69
2024/03/18 08:14:14;;;;;;;4.50;3.40;;;;;;;9.73;67.87;97734.41;1221517;75;2931734;-69
2024/03/18 08:16:49;;;;;;;5.20;2.95;;;;;;;9.90;67.76;97726.53;1224636;75;2930877;-66
2024/03/18 08:19:23;;;;;;;4.35;2.10;;;;;;;10.02;66.92;97720.03;1224966;75;2922899;-68
2024/03/18 08:21:55;;;;;;;2.25;1.55;;;;;;;10.61;65.90;97716.59;1223618;75;2919500;-70
2024/03/18 08:24:29;;;;;;;4.95;2.65;;;;;;;10.18;65.71;97716.09;1224966;75;2922085;-69
2024/03/18 08:27:01;;;;;;;5.10;2.30;;;;;;;10.04;64.53;97705.91;1224463;75;2919981;-70
2024/03/18 08:29:34;;;;;;;4.05;1.90;;;;;;;11.00;64.20;97710.91;1225358;75;2925575;-67
2024/03/18 08:32:10;;;;;;;2.20;1.70;;;;;;;11.51;64.19;97711.56;1223744;75;2916592;-70
2024/03/18 08:34:43;;;;;;;5.80;2.35;;;;;;;11.05;63.72;97714.97;1224100;75;2923220;-70
2024/03/18 08:37:19;;;;;;;3.85;1.95;;;;;;;11.29;62.21;97706.56;1224064;75;2921447;-69
2024/03/18 08:39:54;;;;;;;3.70;2.50;;;;;;;11.04;61.32;97703.25;1224538;75;2923837;-67
2024/03/18 08:42:27;;;;;;;3.65;2.00;;;;;;;11.51;60.74;97704.09;1223616;75;2926061;-68
2024/03/18 08:45:00;;;;;;;4.75;1.75;;;;;;;11.81;59.31;97698.44;1223110;75;2924339;-69
2024/03/18 08:47:35;;;;;;;4.55;2.65;;;;;;;10.83;59.59;97688.78;1224214;75;2929848;-67
2024/03/18 08:50:10;;;;;;;5.30;3.00;;;;;;;11.07;60.56;97693.34;1221929;75;2926356;-70
2024/03/18 08:52:42;;;;;;;7.55;2.55;;;;;;;11.11;60.46;97699.34;1220262;75;3087193;-68
2024/03/18 08:55:15;;;;;;;5.85;2.70;;;;;;;10.77;59.85;97696.16;1222736;75;2919617;-68
2024/03/18 08:57:48;;;;;;;4.70;2.45;;;;;;;10.77;60.86;97692.66;1224326;75;2928553;-69
2024/03/18 09:00:21;;;;;;;5.60;2.35;;;;;;;10.81;60.57;97687.75;1223967;75;2921084;-66
2024/03/18 09:02:57;;;;;;;4.70;2.30;;;;;;;10.85;60.88;97691.78;1223942;75;2922394;-68
2024/03/18 09:05:30;;;;;;;4.50;2.05;;;;;;;11.82;58.11;97686.22;1222166;75;2940886;-69
2024/03/18 09:08:04;;;;;;;5.15;1.95;;;;;;;11.56;59.03;97683.47;1221226;75;3044756;-74
2024/03/18 09:10:37;;;;;;;6.65;2.85;;;;;;;11.55;58.63;97687.44;1223792;75;2924990;-68
2024/03/18 09:13:11;;;;;;;4.50;2.40;;;;;;;11.29;59.41;97677.16;1223786;75;2929895;-67
2024/03/18 09:15:44;;;;;;;3.80;2.25;;;;;;;11.52;59.36;97682.94;1224994;75;2918489;-68
2024/03/18 09:18:20;;;;;;;3.30;2.20;;;;;;;11.41;58.82;97680.81;1223759;75;2926360;-70
2024/03/18 09:20:56;;;;;;;5.35;2.60;;;;;;;10.63;59.00;97675.03;1224087;75;2925178;-71
2024/03/18 09:23:29;;;;;;;5.15;2.25;;;;;;;10.94;59.91;97668.25;1223902;75;2927177;-69
2024/03/18 09:26:03;;;;;;;6.45;2.65;;;;;;;11.45;59.24;97664.91;1223389;75;2930461;-71
2024/03/18 09:28:36;;;;;;;9.15;3.15;;;;;;;11.07;58.69;97663.94;1221020;75;2933256;-69
2024/03/18 09:31:09;;;;;;;6.15;2.50;;;;;;;11.41;57.51;97656.13;1221673;75;2957479;-70
2024/03/18 09:33:47;;;;;;;4.95;2.55;;;;;;;12.17;57.61;97652.44;1222514;75;2928080;-69
2024/03/18 09:36:20;;;;;;;7.10;2.60;;;;;;;11.65;57.56;97647.66;1223674;75;2928616;-68
2024/03/18 09:38:53;;;;;;;7.45;2.80;;;;;;;11.80;57.68;97650.31;1223530;75;2924157;-68
2024/03/18 09:41:27;;;;;;;5.75;2.60;;;;;;;12.53;56.40;97642.72;1223731;75;2933619;-70
2024/03/18 09:44:00;;;;;;;4.35;2.95;;;;;;;13.03;55.08;97641.47;1223849;75;2920192;-68
2024/03/18 09:46:33;;;;;;;21.80;11.75;;;;;;;12.61;56.72;97639.50;1223350;75;2926307;-72
2024/03/18 09:49:17;;;;;;;6.00;3.15;;;;;;;12.29;57.44;97634.81;1223825;75;2981978;-66
2024/03/18 09:51:51;;;;;;;4.45;2.60;;;;;;;12.52;57.19;97634.97;1222597;75;2924024;-69
2024/03/18 09:54:24;;;;;;;12.15;6.10;;;;;;;12.16;56.72;97637.19;1223116;75;2911718;-67
2024/03/18 09:57:05;;;;;;;6.00;3.10;;;;;;;11.89;57.65;97632.97;1223462;75;2929952;-67
2024/03/18 09:59:38;;;;;;;3.10;2.30;;;;;;;12.38;57.11;97638.59;1224318;75;2931121;-69
2024/03/18 10:02:18;;;;;;;10.20;3.45;;;;;;;11.17;60.02;97625.47;1222220;75;2925000;-66
2024/03/18 10:04:59;;;;;;;9.50;5.10;;;;;;;12.28;57.91;97621.56;1222376;75;2926071;-68
2024/03/18 10:07:31;;;;;;;18.90;10.70;;;;;;;12.17;59.00;97627.72;1221935;75;2934956;-68
2024/03/18 10:10:06;;;;;;;7.85;4.10;;;;;;;12.23;56.53;97622.28;1223999;75;2923756;-68
2024/03/18 10:12:39;;;;;;;6.35;2.90;;;;;;;11.13;57.30;97622.91;1222177;75;2926851;-67
2024/03/18 10:15:16;;;;;;;3.85;2.35;;;;;;;12.26;57.49;97622.03;1222573;75;2973653;-68
2024/03/18 10:17:49;;;;;;;5.50;2.90;;;;;;;11.69;58.26;97612.56;1221685;75;2927296;-66
2024/03/18 10:20:26;;;;;;;6.25;2.70;;;;;;;11.62;58.60;97613.00;1223830;75;2921243;-71
2024/03/18 10:22:59;;;;;;;6.10;2.95;;;;;;;12.20;57.74;97615.78;1223825;75;2924837;-66
2024/03/18 10:25:32;;;;;;;5.65;2.80;;;;;;;11.93;57.91;97606.81;1206178;75;4239113;-70
2024/03/18 10:28:09;;;;;;;6.20;3.15;;;;;;;12.41;58.08;97602.69;1223812;75;2929254;-67
2024/03/18 10:30:42;;;;;;;6.70;3.20;;;;;;;11.87;57.91;97606.00;1224274;75;2919920;-66
2024/03/18 10:33:22;;;;;;;5.80;2.80;;;;;;;12.47;56.64;97600.72;1224076;75;2920427;-67
2024/03/18 10:36:00;;;;;;;6.25;2.50;;;;;;;13.12;56.06;97591.06;1223772;75;2918644;-67
2024/03/18 10:38:39;;;;;;;5.40;3.00;;;;;;;11.99;59.02;97604.13;1223964;75;2923173;-66
2024/03/18 10:41:18;;;;;;;8.05;3.60;;;;;;;11.96;59.89;97593.38;1223209;75;2924542;-67
2024/03/18 10:43:57;;;;;;;7.85;3.35;;;;;;;12.15;58.29;97587.03;1223351;75;2936005;-70
2024/03/18 10:46:30;;;;;;;4.40;2.55;;;;;;;13.43;56.34;97592.94;1223496;75;2921004;-68
2024/03/18 10:49:04;;;;;;;5.60;2.60;;;;;;;12.77;56.92;97584.69;1223479;75;2925619;-66
2024/03/18 10:51:40;;;;;;;4.90;3.05;;;;;;;12.73;58.29;97580.66;1223518;75;2920559;-67
2024/03/18 10:54:18;;;;;;;5.40;3.20;;;;;;;12.33;58.27;97588.66;1222047;75;2927951;-71
2024/03/18 10:56:51;;;;;;;5.10;2.90;;;;;;;12.80;57.74;97585.69;1224905;75;2923129;-71
2024/03/18 10:59:25;;;;;;;3.60;2.65;;;;;;;13.28;56.23;97575.91;1223751;75;2918505;-68
2024/03/18 11:01:58;;;;;;;4.80;3.00;;;;;;;12.53;57.99;97573.28;1223740;75;2920571;-66
2024/03/18 11:04:31;;;;;;;6.60;3.80;;;;;;;12.90;57.88;97570.50;1224301;75;2921105;-68
2024/03/18 11:07:10;;;;;;;4.35;2.65;;;;;;;13.05;57.53;97564.78;1224259;75;2923286;-70
2024/03/18 11:09:44;;;;;;;5.45;2.85;;;;;;;12.56;59.12;97561.34;1223893;75;2929044;-66
2024/03/18 11:12:35;;;;;;;5.90;2.55;;;;;;;12.92;58.31;97561.75;1222559;75;2921439;-66
2024/03/18 11:15:10;;;;;;;7.55;4.25;;;;;;;13.31;57.23;97559.16;1222945;75;2905104;-69
2024/03/18 11:17:49;;;;;;;4.45;2.55;;;;;;;13.72;57.05;97553.22;1223523;75;2934124;-67
2024/03/18 11:20:23;;;;;;;5.75;3.00;;;;;;;13.01;57.72;97553.28;1223923;75;2924851;-69
2024/03/18 11:23:02;;;;;;;4.80;2.90;;;;;;;13.17;57.66;97555.34;1223828;75;2925402;-68
2024/03/18 11:25:34;;;;;;;;;;;;;;;13.10;58.09;97555.81;1223239;75;2954740;-67
2024/03/18 11:28:11;;;;;;;6.10;2.95;;;;;;;13.39;58.14;97551.16;1186640;75;5811179;-67
2024/03/18 11:30:45;;;;;;;4.40;2.90;;;;;;;12.85;58.55;97546.50;1210496;75;3130506;-68
2024/03/18 11:33:28;;;;;;;4.95;2.85;;;;;;;12.58;58.68;97537.63;1185035;75;6408006;-67
2024/03/18 11:36:05;;;;;;;4.15;2.95;;;;;;;12.78;59.08;97539.47;904418;75;15375520;-70
2024/03/18 11:38:41;;;;;;;6.80;2.90;;;;;;;12.81;59.38;97531.50;1214574;75;3284165;-67
2024/03/18 11:41:16;;;;;;;6.80;3.15;;;;;;;12.34;59.95;97521.53;1216746;75;2923792;-68
2024/03/18 11:43:52;;;;;;;5.15;3.15;;;;;;;12.35;60.02;97523.03;1221988;75;2895179;-65
2024/03/18 11:46:25;;;;;;;3.50;2.30;;;;;;;13.09;58.61;97518.59;1221719;75;2921670;-70
2024/03/18 11:49:06;;;;;;;5.10;2.80;;;;;;;13.04;59.03;97511.09;1171779;75;7111134;-68
2024/03/18 11:51:38;;;;;;;3.90;2.40;;;;;;;13.40;57.49;97514.19;1223133;75;2923358;-66
2024/03/18 11:54:14;;;;;;;4.35;2.25;;;;;;;13.82;56.89;97501.44;1223018;75;2932160;-67